sensor_id;sensor_type;location;lat;lon;timestamp;temperature;humidity
2465;DHT22;1244;54.326;10.074;2024-01-30T00:01:10;6.80;99.90
2465;DHT22;1244;54.326;10.074;2024-01-30T00:03:35;6.80;99.90
2465;DHT22;1244;54.326;10.074;2024-01-30T00:06:00;6.80;99.90
2465;DHT22;1244;54.326;10.074;2024-01-30T00:08:28;6.90;99.90
2465;DHT22;1244;54.326;10.074;2024-01-30T00:10:53;6.90;99.90
2465;DHT22;1244;54.326;10.074;2024-01-30T00:13:19;6.90;99.90
2465;DHT22;1244;54.326;10.074;2024-01-30T00:15:45;6.90;99.90
2465;DHT22;1244;54.326;10.074;2024-01-30T00:18:10;6.90;99.90
2465;DHT22;1244;54.326;10.074;2024-01-30T00:20:36;6.90;99.90
2465;DHT22;1244;54.326;10.074;2024-01-30T00:23:01;6.90;99.90
2465;DHT22;1244;54.326;10.074;2024-01-30T00:25:27;6.90;99.90
2465;DHT22;1244;54.326;10.074;2024-01-30T00:27:52;6.80;99.90
2465;DHT22;1244;54.326;10.074;2024-01-30T00:30:18;6.90;99.90
2465;DHT22;1244;54.326;10.074;2024-01-30T00:32:43;6.90;99.90
2465;DHT22;1244;54.326;10.074;2024-01-30T00:35:09;6.90;99.90
2465;DHT22;1244;54.326;10.074;2024-01-30T00:37:35;6.80;99.90
2465;DHT22;1244;54.326;10.074;2024-01-30T00:40:01;6.90;99.90
2465;DHT22;1244;54.326;10.074;2024-01-30T00:42:26;6.90;99.90
2465;DHT22;1244;54.326;10.074;2024-01-30T00:44:52;6.90;99.90
2465;DHT22;1244;54.326;10.074;2024-01-30T00:47:17;6.90;99.90
2465;DHT22;1244;54.326;10.074;2024-01-30T00:49:43;6.90;99.90
2465;DHT22;1244;54.326;10.074;2024-01-30T00:52:08;6.80;99.90
2465;DHT22;1244;54.326;10.074;2024-01-30T00:54:34;6.90;99.90
2465;DHT22;1244;54.326;10.074;2024-01-30T00:56:59;6.90;99.90
2465;DHT22;1244;54.326;10.074;2024-01-30T00:59:24;6.90;99.90
2465;DHT22;1244;54.326;10.074;2024-01-30T01:01:50;6.80;99.90
2465;DHT22;1244;54.326;10.074;2024-01-30T01:04:16;6.90;99.90
2465;DHT22;1244;54.326;10.074;2024-01-30T01:06:42;6.90;99.90
2465;DHT22;1244;54.326;10.074;2024-01-30T01:09:10;6.90;99.90
2465;DHT22;1244;54.326;10.074;2024-01-30T01:11:35;6.90;99.90
2465;DHT22;1244;54.326;10.074;2024-01-30T01:14:01;6.90;99.90
2465;DHT22;1244;54.326;10.074;2024-01-30T01:16:26;6.90;99.90
2465;DHT22;1244;54.326;10.074;2024-01-30T01:18:52;6.90;99.90
2465;DHT22;1244;54.326;10.074;2024-01-30T01:21:17;6.90;99.90
2465;DHT22;1244;54.326;10.074;2024-01-30T01:23:43;6.90;99.90
2465;DHT22;1244;54.326;10.074;2024-01-30T01:26:08;6.90;99.90
2465;DHT22;1244;54.326;10.074;2024-01-30T01:28:35;7.00;99.90
2465;DHT22;1244;54.326;10.074;2024-01-30T01:31:00;7.00;99.90
2465;DHT22;1244;54.326;10.074;2024-01-30T01:33:33;7.00;99.90
2465;DHT22;1244;54.326;10.074;2024-01-30T01:35:59;7.00;99.90
2465;DHT22;1244;54.326;10.074;2024-01-30T01:38:25;7.00;99.90
2465;DHT22;1244;54.326;10.074;2024-01-30T01:40:50;7.00;99.90
2465;DHT22;1244;54.326;10.074;2024-01-30T01:43:16;7.00;99.90
2465;DHT22;1244;54.326;10.074;2024-01-30T01:45:41;7.00;99.90
2465;DHT22;1244;54.326;10.074;2024-01-30T01:48:07;7.00;99.90
2465;DHT22;1244;54.326;10.074;2024-01-30T01:50:34;7.00;99.90
2465;DHT22;1244;54.326;10.074;2024-01-30T01:53:00;7.00;99.90
2465;DHT22;1244;54.326;10.074;2024-01-30T01:55:25;7.00;99.90
2465;DHT22;1244;54.326;10.074;2024-01-30T01:57:52;7.00;99.90
2465;DHT22;1244;54.326;10.074;2024-01-30T02:00:18;7.00;99.90
2465;DHT22;1244;54.326;10.074;2024-01-30T02:02:44;7.00;99.90
2465;DHT22;1244;54.326;10.074;2024-01-30T02:05:10;7.00;99.90
2465;DHT22;1244;54.326;10.074;2024-01-30T02:07:36;7.00;99.90
2465;DHT22;1244;54.326;10.074;2024-01-30T02:10:02;7.00;99.90
2465;DHT22;1244;54.326;10.074;2024-01-30T02:12:29;7.00;99.90
2465;DHT22;1244;54.326;10.074;2024-01-30T02:14:54;7.00;99.90
2465;DHT22;1244;54.326;10.074;2024-01-30T02:17:20;7.00;99.90
2465;DHT22;1244;54.326;10.074;2024-01-30T02:19:46;7.00;99.90
2465;DHT22;1244;54.326;10.074;2024-01-30T02:22:11;7.00;99.90
2465;DHT22;1244;54.326;10.074;2024-01-30T02:24:37;7.00;99.90
2465;DHT22;1244;54.326;10.074;2024-01-30T02:27:02;7.00;99.90
2465;DHT22;1244;54.326;10.074;2024-01-30T02:29:28;6.90;99.90
2465;DHT22;1244;54.326;10.074;2024-01-30T02:31:53;6.90;99.90
2465;DHT22;1244;54.326;10.074;2024-01-30T02:34:19;6.80;99.90
2465;DHT22;1244;54.326;10.074;2024-01-30T02:36:45;6.80;99.90
2465;DHT22;1244;54.326;10.074;2024-01-30T02:39:10;6.80;99.90
2465;DHT22;1244;54.326;10.074;2024-01-30T02:41:36;6.80;99.90
2465;DHT22;1244;54.326;10.074;2024-01-30T02:44:01;6.80;99.90
2465;DHT22;1244;54.326;10.074;2024-01-30T02:46:27;6.70;99.90
2465;DHT22;1244;54.326;10.074;2024-01-30T02:48:52;6.70;99.90
2465;DHT22;1244;54.326;10.074;2024-01-30T02:51:18;6.60;99.90
2465;DHT22;1244;54.326;10.074;2024-01-30T02:53:43;6.60;99.90
2465;DHT22;1244;54.326;10.074;2024-01-30T02:56:09;6.50;99.90
2465;DHT22;1244;54.326;10.074;2024-01-30T02:58:35;6.50;99.90
2465;DHT22;1244;54.326;10.074;2024-01-30T03:01:01;6.40;99.90
2465;DHT22;1244;54.326;10.074;2024-01-30T03:03:26;6.30;99.90
2465;DHT22;1244;54.326;10.074;2024-01-30T03:05:52;6.20;99.90
2465;DHT22;1244;54.326;10.074;2024-01-30T03:08:17;6.30;99.90
2465;DHT22;1244;54.326;10.074;2024-01-30T03:10:42;6.30;99.90
2465;DHT22;1244;54.326;10.074;2024-01-30T03:13:08;6.30;99.90
2465;DHT22;1244;54.326;10.074;2024-01-30T03:15:33;6.20;99.90
2465;DHT22;1244;54.326;10.074;2024-01-30T03:17:59;6.20;99.90
2465;DHT22;1244;54.326;10.074;2024-01-30T03:20:24;6.20;99.90
2465;DHT22;1244;54.326;10.074;2024-01-30T03:22:50;6.30;99.90
2465;DHT22;1244;54.326;10.074;2024-01-30T03:25:15;6.30;99.90
2465;DHT22;1244;54.326;10.074;2024-01-30T03:27:40;6.30;99.90
2465;DHT22;1244;54.326;10.074;2024-01-30T03:30:06;6.20;99.90
2465;DHT22;1244;54.326;10.074;2024-01-30T03:32:32;6.20;99.90
2465;DHT22;1244;54.326;10.074;2024-01-30T03:34:57;6.10;99.90
2465;DHT22;1244;54.326;10.074;2024-01-30T03:37:23;6.20;99.90
2465;DHT22;1244;54.326;10.074;2024-01-30T03:39:48;6.10;99.90
2465;DHT22;1244;54.326;10.074;2024-01-30T03:42:14;6.10;99.90
2465;DHT22;1244;54.326;10.074;2024-01-30T03:44:40;6.10;99.90
2465;DHT22;1244;54.326;10.074;2024-01-30T03:47:05;6.00;99.90
2465;DHT22;1244;54.326;10.074;2024-01-30T03:49:30;6.00;99.90
2465;DHT22;1244;54.326;10.074;2024-01-30T03:51:56;6.00;99.90
2465;DHT22;1244;54.326;10.074;2024-01-30T03:54:21;5.90;99.90
2465;DHT22;1244;54.326;10.074;2024-01-30T03:56:47;5.90;99.90
2465;DHT22;1244;54.326;10.074;2024-01-30T03:59:12;5.90;99.90
2465;DHT22;1244;54.326;10.074;2024-01-30T04:01:38;5.80;99.90
2465;DHT22;1244;54.326;10.074;2024-01-30T04:04:03;5.90;99.90
2465;DHT22;1244;54.326;10.074;2024-01-30T04:06:29;5.80;99.90
2465;DHT22;1244;54.326;10.074;2024-01-30T04:08:54;5.80;99.90
2465;DHT22;1244;54.326;10.074;2024-01-30T04:11:19;5.70;99.90
2465;DHT22;1244;54.326;10.074;2024-01-30T04:13:45;5.70;99.90
2465;DHT22;1244;54.326;10.074;2024-01-30T04:16:21;5.70;99.90
2465;DHT22;1244;54.326;10.074;2024-01-30T04:18:47;5.70;99.90
2465;DHT22;1244;54.326;10.074;2024-01-30T04:21:13;5.50;99.90
2465;DHT22;1244;54.326;10.074;2024-01-30T04:23:39;5.60;99.90
2465;DHT22;1244;54.326;10.074;2024-01-30T04:26:04;5.60;99.90
2465;DHT22;1244;54.326;10.074;2024-01-30T04:28:30;5.60;99.90
2465;DHT22;1244;54.326;10.074;2024-01-30T04:30:55;5.50;99.90
2465;DHT22;1244;54.326;10.074;2024-01-30T04:33:21;5.50;99.90
2465;DHT22;1244;54.326;10.074;2024-01-30T04:35:46;5.50;99.90
2465;DHT22;1244;54.326;10.074;2024-01-30T04:38:11;5.50;99.90
2465;DHT22;1244;54.326;10.074;2024-01-30T04:40:37;5.50;99.90
2465;DHT22;1244;54.326;10.074;2024-01-30T04:43:02;5.50;99.90
2465;DHT22;1244;54.326;10.074;2024-01-30T04:45:28;5.50;99.90
2465;DHT22;1244;54.326;10.074;2024-01-30T04:47:53;5.40;99.90
2465;DHT22;1244;54.326;10.074;2024-01-30T04:50:19;5.40;99.90
2465;DHT22;1244;54.326;10.074;2024-01-30T04:52:44;5.40;99.90
2465;DHT22;1244;54.326;10.074;2024-01-30T04:55:10;5.40;99.90
2465;DHT22;1244;54.326;10.074;2024-01-30T04:57:35;5.40;99.90
2465;DHT22;1244;54.326;10.074;2024-01-30T05:00:02;5.30;99.90
2465;DHT22;1244;54.326;10.074;2024-01-30T05:02:27;5.30;99.90
2465;DHT22;1244;54.326;10.074;2024-01-30T05:04:53;5.30;99.90
2465;DHT22;1244;54.326;10.074;2024-01-30T05:07:18;5.20;99.90
2465;DHT22;1244;54.326;10.074;2024-01-30T05:09:44;5.20;99.90
2465;DHT22;1244;54.326;10.074;2024-01-30T05:12:09;5.10;99.90
2465;DHT22;1244;54.326;10.074;2024-01-30T05:14:35;5.10;99.90
2465;DHT22;1244;54.326;10.074;2024-01-30T05:17:00;5.10;99.90
2465;DHT22;1244;54.326;10.074;2024-01-30T05:19:26;5.10;99.90
2465;DHT22;1244;54.326;10.074;2024-01-30T05:21:51;5.10;99.90
2465;DHT22;1244;54.326;10.074;2024-01-30T05:24:16;5.10;99.90
2465;DHT22;1244;54.326;10.074;2024-01-30T05:26:42;5.10;99.90
2465;DHT22;1244;54.326;10.074;2024-01-30T05:29:07;5.10;99.90
2465;DHT22;1244;54.326;10.074;2024-01-30T05:31:33;5.10;99.90
2465;DHT22;1244;54.326;10.074;2024-01-30T05:33:59;5.10;99.90
2465;DHT22;1244;54.326;10.074;2024-01-30T05:36:25;5.10;99.90
2465;DHT22;1244;54.326;10.074;2024-01-30T05:38:50;5.00;99.90
2465;DHT22;1244;54.326;10.074;2024-01-30T05:41:16;5.10;99.90
2465;DHT22;1244;54.326;10.074;2024-01-30T05:43:41;5.10;99.90
2465;DHT22;1244;54.326;10.074;2024-01-30T05:46:07;5.10;99.90
2465;DHT22;1244;54.326;10.074;2024-01-30T05:48:32;5.10;99.90
2465;DHT22;1244;54.326;10.074;2024-01-30T05:51:00;5.00;99.90
2465;DHT22;1244;54.326;10.074;2024-01-30T05:53:26;5.00;99.90
2465;DHT22;1244;54.326;10.074;2024-01-30T05:55:51;5.00;99.90
2465;DHT22;1244;54.326;10.074;2024-01-30T05:58:16;5.00;99.90
2465;DHT22;1244;54.326;10.074;2024-01-30T06:00:42;4.90;99.90
2465;DHT22;1244;54.326;10.074;2024-01-30T06:03:07;5.00;99.90
2465;DHT22;1244;54.326;10.074;2024-01-30T06:05:33;5.00;99.90
2465;DHT22;1244;54.326;10.074;2024-01-30T06:07:58;5.00;99.90
2465;DHT22;1244;54.326;10.074;2024-01-30T06:10:24;5.10;99.90
2465;DHT22;1244;54.326;10.074;2024-01-30T06:12:49;5.00;99.90
2465;DHT22;1244;54.326;10.074;2024-01-30T06:15:14;5.00;99.90
2465;DHT22;1244;54.326;10.074;2024-01-30T06:17:40;5.00;99.90
2465;DHT22;1244;54.326;10.074;2024-01-30T06:20:06;5.00;99.90
2465;DHT22;1244;54.326;10.074;2024-01-30T06:22:31;4.90;99.90
2465;DHT22;1244;54.326;10.074;2024-01-30T06:24:57;5.00;99.90
2465;DHT22;1244;54.326;10.074;2024-01-30T06:27:22;4.90;99.90
2465;DHT22;1244;54.326;10.074;2024-01-30T06:29:50;5.00;99.90
2465;DHT22;1244;54.326;10.074;2024-01-30T06:32:16;5.00;99.90
2465;DHT22;1244;54.326;10.074;2024-01-30T06:34:41;5.00;99.90
2465;DHT22;1244;54.326;10.074;2024-01-30T06:37:09;5.00;99.90
2465;DHT22;1244;54.326;10.074;2024-01-30T06:39:34;5.00;99.90
2465;DHT22;1244;54.326;10.074;2024-01-30T06:42:00;5.00;99.90
2465;DHT22;1244;54.326;10.074;2024-01-30T06:44:25;4.90;99.90
2465;DHT22;1244;54.326;10.074;2024-01-30T06:46:51;5.00;99.90
2465;DHT22;1244;54.326;10.074;2024-01-30T06:49:16;4.90;99.90
2465;DHT22;1244;54.326;10.074;2024-01-30T06:51:42;4.90;99.90
2465;DHT22;1244;54.326;10.074;2024-01-30T06:54:07;4.90;99.90
2465;DHT22;1244;54.326;10.074;2024-01-30T06:56:32;4.90;99.90
2465;DHT22;1244;54.326;10.074;2024-01-30T06:58:58;4.90;99.90
2465;DHT22;1244;54.326;10.074;2024-01-30T07:01:28;5.00;99.90
2465;DHT22;1244;54.326;10.074;2024-01-30T07:03:54;4.90;99.90
2465;DHT22;1244;54.326;10.074;2024-01-30T07:06:20;5.00;99.90
2465;DHT22;1244;54.326;10.074;2024-01-30T07:08:45;5.00;99.90
2465;DHT22;1244;54.326;10.074;2024-01-30T07:11:10;5.00;99.90
2465;DHT22;1244;54.326;10.074;2024-01-30T07:13:43;4.90;99.90
2465;DHT22;1244;54.326;10.074;2024-01-30T07:16:08;5.00;99.90
2465;DHT22;1244;54.326;10.074;2024-01-30T07:18:34;5.00;99.90
2465;DHT22;1244;54.326;10.074;2024-01-30T07:20:59;5.00;99.90
2465;DHT22;1244;54.326;10.074;2024-01-30T07:23:25;5.00;99.90
2465;DHT22;1244;54.326;10.074;2024-01-30T07:25:50;4.90;99.90
2465;DHT22;1244;54.326;10.074;2024-01-30T07:28:16;4.90;99.90
2465;DHT22;1244;54.326;10.074;2024-01-30T07:30:44;4.90;99.90
2465;DHT22;1244;54.326;10.074;2024-01-30T07:33:10;4.90;99.90
2465;DHT22;1244;54.326;10.074;2024-01-30T07:35:36;5.10;99.90
2465;DHT22;1244;54.326;10.074;2024-01-30T07:38:01;5.10;99.90
2465;DHT22;1244;54.326;10.074;2024-01-30T07:40:27;5.10;99.90
2465;DHT22;1244;54.326;10.074;2024-01-30T07:42:55;5.10;99.90
2465;DHT22;1244;54.326;10.074;2024-01-30T07:45:20;5.10;99.90
2465;DHT22;1244;54.326;10.074;2024-01-30T07:48:39;5.10;99.90
2465;DHT22;1244;54.326;10.074;2024-01-30T07:51:04;5.10;99.90
2465;DHT22;1244;54.326;10.074;2024-01-30T07:53:30;5.10;99.90
2465;DHT22;1244;54.326;10.074;2024-01-30T07:55:56;5.10;99.90
2465;DHT22;1244;54.326;10.074;2024-01-30T07:58:21;5.20;99.90
2465;DHT22;1244;54.326;10.074;2024-01-30T08:00:47;5.30;99.90
2465;DHT22;1244;54.326;10.074;2024-01-30T08:03:12;5.30;99.90
2465;DHT22;1244;54.326;10.074;2024-01-30T08:05:37;5.30;99.90
2465;DHT22;1244;54.326;10.074;2024-01-30T08:08:04;5.30;99.90
2465;DHT22;1244;54.326;10.074;2024-01-30T08:10:29;5.30;99.90
2465;DHT22;1244;54.326;10.074;2024-01-30T08:12:55;5.40;99.90
2465;DHT22;1244;54.326;10.074;2024-01-30T08:15:20;5.40;99.90
2465;DHT22;1244;54.326;10.074;2024-01-30T08:17:46;5.40;99.90
2465;DHT22;1244;54.326;10.074;2024-01-30T08:20:11;5.50;99.90
2465;DHT22;1244;54.326;10.074;2024-01-30T08:22:40;5.50;99.90
2465;DHT22;1244;54.326;10.074;2024-01-30T08:25:06;5.60;99.90
2465;DHT22;1244;54.326;10.074;2024-01-30T08:27:31;5.60;99.90
2465;DHT22;1244;54.326;10.074;2024-01-30T08:29:57;5.70;99.90
2465;DHT22;1244;54.326;10.074;2024-01-30T08:32:22;5.70;99.90
2465;DHT22;1244;54.326;10.074;2024-01-30T08:34:49;5.70;99.90
2465;DHT22;1244;54.326;10.074;2024-01-30T08:37:14;5.80;99.90
2465;DHT22;1244;54.326;10.074;2024-01-30T08:39:42;5.90;99.90
2465;DHT22;1244;54.326;10.074;2024-01-30T08:42:07;6.00;99.90
2465;DHT22;1244;54.326;10.074;2024-01-30T08:44:33;6.00;99.90
2465;DHT22;1244;54.326;10.074;2024-01-30T08:46:58;6.10;99.90
2465;DHT22;1244;54.326;10.074;2024-01-30T08:49:24;6.10;99.90
2465;DHT22;1244;54.326;10.074;2024-01-30T08:51:49;6.20;99.90
2465;DHT22;1244;54.326;10.074;2024-01-30T08:54:15;6.30;99.90
2465;DHT22;1244;54.326;10.074;2024-01-30T08:56:41;6.30;99.90
2465;DHT22;1244;54.326;10.074;2024-01-30T08:59:06;6.30;99.90
2465;DHT22;1244;54.326;10.074;2024-01-30T09:01:32;6.40;99.90
2465;DHT22;1244;54.326;10.074;2024-01-30T09:03:57;6.40;99.90
2465;DHT22;1244;54.326;10.074;2024-01-30T09:06:23;6.40;99.90
2465;DHT22;1244;54.326;10.074;2024-01-30T09:08:49;6.40;99.90
2465;DHT22;1244;54.326;10.074;2024-01-30T09:11:15;6.50;99.90
2465;DHT22;1244;54.326;10.074;2024-01-30T09:13:41;6.50;99.90
2465;DHT22;1244;54.326;10.074;2024-01-30T09:16:06;6.50;99.90
2465;DHT22;1244;54.326;10.074;2024-01-30T09:18:32;6.40;99.90
2465;DHT22;1244;54.326;10.074;2024-01-30T09:20:57;6.40;99.90
2465;DHT22;1244;54.326;10.074;2024-01-30T09:23:23;6.40;99.90
2465;DHT22;1244;54.326;10.074;2024-01-30T09:25:49;6.40;99.90
2465;DHT22;1244;54.326;10.074;2024-01-30T09:28:14;6.40;99.90
2465;DHT22;1244;54.326;10.074;2024-01-30T09:30:40;6.40;99.90
2465;DHT22;1244;54.326;10.074;2024-01-30T09:33:06;6.40;99.90
2465;DHT22;1244;54.326;10.074;2024-01-30T09:35:31;6.50;99.90
2465;DHT22;1244;54.326;10.074;2024-01-30T09:37:57;6.50;99.90
2465;DHT22;1244;54.326;10.074;2024-01-30T09:40:23;6.50;99.90
2465;DHT22;1244;54.326;10.074;2024-01-30T09:42:49;6.50;99.90
2465;DHT22;1244;54.326;10.074;2024-01-30T09:45:15;6.60;99.90
2465;DHT22;1244;54.326;10.074;2024-01-30T09:47:42;6.60;99.90
2465;DHT22;1244;54.326;10.074;2024-01-30T09:50:09;6.60;99.90
2465;DHT22;1244;54.326;10.074;2024-01-30T09:52:34;6.70;99.90
2465;DHT22;1244;54.326;10.074;2024-01-30T09:55:00;6.80;99.90
2465;DHT22;1244;54.326;10.074;2024-01-30T09:57:26;6.80;99.90
2465;DHT22;1244;54.326;10.074;2024-01-30T09:59:52;6.90;99.90
2465;DHT22;1244;54.326;10.074;2024-01-30T10:02:19;6.90;99.90
2465;DHT22;1244;54.326;10.074;2024-01-30T10:04:47;7.00;99.90
2465;DHT22;1244;54.326;10.074;2024-01-30T10:07:13;7.10;99.90
2465;DHT22;1244;54.326;10.074;2024-01-30T10:09:39;7.10;99.90
2465;DHT22;1244;54.326;10.074;2024-01-30T10:12:05;7.10;99.90
2465;DHT22;1244;54.326;10.074;2024-01-30T10:14:31;7.20;99.90
2465;DHT22;1244;54.326;10.074;2024-01-30T10:16:57;7.20;99.90
2465;DHT22;1244;54.326;10.074;2024-01-30T10:19:22;7.20;99.90
2465;DHT22;1244;54.326;10.074;2024-01-30T10:21:48;7.30;99.90
2465;DHT22;1244;54.326;10.074;2024-01-30T10:24:13;7.30;99.90
2465;DHT22;1244;54.326;10.074;2024-01-30T10:26:39;7.30;99.90
2465;DHT22;1244;54.326;10.074;2024-01-30T10:29:05;7.30;99.90
2465;DHT22;1244;54.326;10.074;2024-01-30T10:31:30;7.30;99.90
2465;DHT22;1244;54.326;10.074;2024-01-30T10:33:56;7.40;99.90
2465;DHT22;1244;54.326;10.074;2024-01-30T10:36:21;7.40;99.90
2465;DHT22;1244;54.326;10.074;2024-01-30T10:38:51;7.50;99.90
2465;DHT22;1244;54.326;10.074;2024-01-30T10:41:19;7.50;99.90
2465;DHT22;1244;54.326;10.074;2024-01-30T10:43:50;7.60;99.90
2465;DHT22;1244;54.326;10.074;2024-01-30T10:46:21;7.70;99.90
2465;DHT22;1244;54.326;10.074;2024-01-30T10:48:59;7.70;99.90
2465;DHT22;1244;54.326;10.074;2024-01-30T10:51:28;7.70;99.90
2465;DHT22;1244;54.326;10.074;2024-01-30T10:53:53;7.80;99.90
2465;DHT22;1244;54.326;10.074;2024-01-30T10:56:21;7.80;99.90
2465;DHT22;1244;54.326;10.074;2024-01-30T10:58:47;7.80;99.90
2465;DHT22;1244;54.326;10.074;2024-01-30T11:01:12;7.80;99.90
2465;DHT22;1244;54.326;10.074;2024-01-30T11:03:38;7.80;99.90
2465;DHT22;1244;54.326;10.074;2024-01-30T11:06:03;7.80;99.90
2465;DHT22;1244;54.326;10.074;2024-01-30T11:08:31;7.80;99.90
2465;DHT22;1244;54.326;10.074;2024-01-30T11:10:57;7.80;99.90
2465;DHT22;1244;54.326;10.074;2024-01-30T11:13:30;7.80;99.90
2465;DHT22;1244;54.326;10.074;2024-01-30T11:15:55;7.90;99.90
2465;DHT22;1244;54.326;10.074;2024-01-30T11:18:25;7.90;99.90
2465;DHT22;1244;54.326;10.074;2024-01-30T11:20:51;7.90;99.90
2465;DHT22;1244;54.326;10.074;2024-01-30T11:23:16;7.90;99.90
2465;DHT22;1244;54.326;10.074;2024-01-30T11:25:43;7.90;99.90
2465;DHT22;1244;54.326;10.074;2024-01-30T11:28:13;7.90;99.90
2465;DHT22;1244;54.326;10.074;2024-01-30T11:30:38;7.80;99.90
2465;DHT22;1244;54.326;10.074;2024-01-30T11:33:09;7.80;99.90
2465;DHT22;1244;54.326;10.074;2024-01-30T11:38:05;7.80;99.90
2465;DHT22;1244;54.326;10.074;2024-01-30T11:40:32;7.80;99.90
2465;DHT22;1244;54.326;10.074;2024-01-30T11:42:59;7.90;99.90
2465;DHT22;1244;54.326;10.074;2024-01-30T11:45:26;7.90;99.90
2465;DHT22;1244;54.326;10.074;2024-01-30T11:47:51;7.90;99.90
2465;DHT22;1244;54.326;10.074;2024-01-30T11:50:16;7.90;99.90
2465;DHT22;1244;54.326;10.074;2024-01-30T11:52:42;7.90;99.90
2465;DHT22;1244;54.326;10.074;2024-01-30T11:55:08;7.90;99.90
2465;DHT22;1244;54.326;10.074;2024-01-30T11:57:34;7.90;99.90
2465;DHT22;1244;54.326;10.074;2024-01-30T12:00:03;8.00;99.90
2465;DHT22;1244;54.326;10.074;2024-01-30T12:02:33;8.00;99.90
2465;DHT22;1244;54.326;10.074;2024-01-30T12:05:02;8.10;99.90
2465;DHT22;1244;54.326;10.074;2024-01-30T12:07:28;8.10;99.90
2465;DHT22;1244;54.326;10.074;2024-01-30T12:09:54;8.10;99.90
2465;DHT22;1244;54.326;10.074;2024-01-30T12:12:21;8.10;99.90
2465;DHT22;1244;54.326;10.074;2024-01-30T12:14:47;8.10;99.90
2465;DHT22;1244;54.326;10.074;2024-01-30T12:17:22;8.20;99.90
2465;DHT22;1244;54.326;10.074;2024-01-30T12:19:47;8.20;99.90
2465;DHT22;1244;54.326;10.074;2024-01-30T12:22:13;8.20;99.90
2465;DHT22;1244;54.326;10.074;2024-01-30T12:24:38;8.30;99.90
2465;DHT22;1244;54.326;10.074;2024-01-30T12:27:04;8.30;99.90
2465;DHT22;1244;54.326;10.074;2024-01-30T12:29:31;8.30;99.90
2465;DHT22;1244;54.326;10.074;2024-01-30T12:31:57;8.30;99.90
2465;DHT22;1244;54.326;10.074;2024-01-30T12:34:24;8.30;99.90
2465;DHT22;1244;54.326;10.074;2024-01-30T12:36:49;8.30;99.90
2465;DHT22;1244;54.326;10.074;2024-01-30T12:39:15;8.30;99.90
2465;DHT22;1244;54.326;10.074;2024-01-30T12:41:40;8.40;99.90
2465;DHT22;1244;54.326;10.074;2024-01-30T12:44:06;8.30;99.90
2465;DHT22;1244;54.326;10.074;2024-01-30T12:46:33;8.30;99.90
2465;DHT22;1244;54.326;10.074;2024-01-30T12:48:59;8.30;99.90
2465;DHT22;1244;54.326;10.074;2024-01-30T12:51:24;8.30;99.90
2465;DHT22;1244;54.326;10.074;2024-01-30T12:53:50;8.30;99.90
2465;DHT22;1244;54.326;10.074;2024-01-30T12:56:15;8.30;99.90
2465;DHT22;1244;54.326;10.074;2024-01-30T12:58:41;8.30;99.90
2465;DHT22;1244;54.326;10.074;2024-01-30T13:01:08;8.40;99.90
2465;DHT22;1244;54.326;10.074;2024-01-30T13:03:33;8.40;99.90
2465;DHT22;1244;54.326;10.074;2024-01-30T13:05:59;8.40;99.90
2465;DHT22;1244;54.326;10.074;2024-01-30T13:08:25;8.40;99.90
2465;DHT22;1244;54.326;10.074;2024-01-30T13:10:50;8.40;99.90
2465;DHT22;1244;54.326;10.074;2024-01-30T13:13:16;8.40;99.90
2465;DHT22;1244;54.326;10.074;2024-01-30T13:15:41;8.40;99.90
2465;DHT22;1244;54.326;10.074;2024-01-30T13:18:07;8.50;99.90
2465;DHT22;1244;54.326;10.074;2024-01-30T13:20:32;8.40;99.90
2465;DHT22;1244;54.326;10.074;2024-01-30T13:22:58;8.40;99.90
2465;DHT22;1244;54.326;10.074;2024-01-30T13:25:23;8.40;99.90
2465;DHT22;1244;54.326;10.074;2024-01-30T13:27:49;8.40;99.90
2465;DHT22;1244;54.326;10.074;2024-01-30T13:30:14;8.40;99.90
2465;DHT22;1244;54.326;10.074;2024-01-30T13:32:40;8.40;99.90
2465;DHT22;1244;54.326;10.074;2024-01-30T13:35:06;8.40;99.90
2465;DHT22;1244;54.326;10.074;2024-01-30T13:37:32;8.40;99.90
2465;DHT22;1244;54.326;10.074;2024-01-30T13:39:57;8.40;99.90
2465;DHT22;1244;54.326;10.074;2024-01-30T13:42:23;8.40;99.90
2465;DHT22;1244;54.326;10.074;2024-01-30T13:44:48;8.40;99.90
2465;DHT22;1244;54.326;10.074;2024-01-30T13:47:14;8.50;99.90
2465;DHT22;1244;54.326;10.074;2024-01-30T13:49:39;8.50;99.90
2465;DHT22;1244;54.326;10.074;2024-01-30T13:52:05;8.50;99.90
2465;DHT22;1244;54.326;10.074;2024-01-30T13:54:30;8.50;99.90
2465;DHT22;1244;54.326;10.074;2024-01-30T13:56:56;8.60;99.90
2465;DHT22;1244;54.326;10.074;2024-01-30T13:59:22;8.60;99.90
2465;DHT22;1244;54.326;10.074;2024-01-30T14:01:49;8.60;99.90
2465;DHT22;1244;54.326;10.074;2024-01-30T14:04:15;8.60;99.90
2465;DHT22;1244;54.326;10.074;2024-01-30T14:06:40;8.60;99.90
2465;DHT22;1244;54.326;10.074;2024-01-30T14:09:06;8.60;99.90
2465;DHT22;1244;54.326;10.074;2024-01-30T14:11:31;8.60;99.90
2465;DHT22;1244;54.326;10.074;2024-01-30T14:13:57;8.60;99.90
2465;DHT22;1244;54.326;10.074;2024-01-30T14:16:23;8.70;99.90
2465;DHT22;1244;54.326;10.074;2024-01-30T14:18:49;8.70;99.90
2465;DHT22;1244;54.326;10.074;2024-01-30T14:21:15;8.70;99.90
2465;DHT22;1244;54.326;10.074;2024-01-30T14:23:40;8.70;99.90
2465;DHT22;1244;54.326;10.074;2024-01-30T14:26:06;8.70;99.90
2465;DHT22;1244;54.326;10.074;2024-01-30T14:28:31;8.80;99.90
2465;DHT22;1244;54.326;10.074;2024-01-30T14:30:56;8.80;99.90
2465;DHT22;1244;54.326;10.074;2024-01-30T14:33:22;8.80;99.90
2465;DHT22;1244;54.326;10.074;2024-01-30T14:35:48;8.80;99.90
2465;DHT22;1244;54.326;10.074;2024-01-30T14:38:13;8.80;99.90
2465;DHT22;1244;54.326;10.074;2024-01-30T14:40:39;8.80;99.90
2465;DHT22;1244;54.326;10.074;2024-01-30T14:43:04;8.80;99.90
2465;DHT22;1244;54.326;10.074;2024-01-30T14:45:30;8.80;99.90
2465;DHT22;1244;54.326;10.074;2024-01-30T14:47:57;8.80;99.90
2465;DHT22;1244;54.326;10.074;2024-01-30T14:50:23;8.80;99.90
2465;DHT22;1244;54.326;10.074;2024-01-30T14:52:48;8.80;99.90
2465;DHT22;1244;54.326;10.074;2024-01-30T14:55:14;8.80;99.90
2465;DHT22;1244;54.326;10.074;2024-01-30T14:57:39;8.80;99.90
2465;DHT22;1244;54.326;10.074;2024-01-30T15:00:07;8.80;99.90
2465;DHT22;1244;54.326;10.074;2024-01-30T15:02:34;8.80;99.90
2465;DHT22;1244;54.326;10.074;2024-01-30T15:05:00;8.80;99.90
2465;DHT22;1244;54.326;10.074;2024-01-30T15:07:26;8.70;99.90
2465;DHT22;1244;54.326;10.074;2024-01-30T15:09:52;8.70;99.90
2465;DHT22;1244;54.326;10.074;2024-01-30T15:12:18;8.80;99.90
2465;DHT22;1244;54.326;10.074;2024-01-30T15:14:43;8.80;99.90
2465;DHT22;1244;54.326;10.074;2024-01-30T15:17:16;8.80;99.90
2465;DHT22;1244;54.326;10.074;2024-01-30T15:19:42;8.70;99.90
2465;DHT22;1244;54.326;10.074;2024-01-30T15:22:07;8.70;99.90
2465;DHT22;1244;54.326;10.074;2024-01-30T15:24:32;8.70;99.90
2465;DHT22;1244;54.326;10.074;2024-01-30T15:26:58;8.70;99.90
2465;DHT22;1244;54.326;10.074;2024-01-30T15:29:23;8.80;99.90
2465;DHT22;1244;54.326;10.074;2024-01-30T15:31:49;8.80;99.90
2465;DHT22;1244;54.326;10.074;2024-01-30T15:34:14;8.70;99.90
2465;DHT22;1244;54.326;10.074;2024-01-30T15:36:40;8.70;99.90
2465;DHT22;1244;54.326;10.074;2024-01-30T15:39:05;8.70;99.90
2465;DHT22;1244;54.326;10.074;2024-01-30T15:41:31;8.70;99.90
2465;DHT22;1244;54.326;10.074;2024-01-30T15:43:56;8.70;99.90
2465;DHT22;1244;54.326;10.074;2024-01-30T15:46:22;8.70;99.90
2465;DHT22;1244;54.326;10.074;2024-01-30T15:48:47;8.70;99.90
2465;DHT22;1244;54.326;10.074;2024-01-30T15:51:13;8.70;99.90
2465;DHT22;1244;54.326;10.074;2024-01-30T15:53:39;8.70;99.90
2465;DHT22;1244;54.326;10.074;2024-01-30T15:56:04;8.70;99.90